sensor_id;sensor_type;location;lat;lon;timestamp;P1;durP1;ratioP1;P2;durP2;ratioP2
55114;SDS011;41010;53.252;5.786;2023-03-12T00:01:14;10.27;;;2.92;;
55114;SDS011;41010;53.252;5.786;2023-03-12T00:03:42;6.72;;;2.80;;
55114;SDS011;41010;53.252;5.786;2023-03-12T00:06:09;9.50;;;2.85;;
55114;SDS011;41010;53.252;5.786;2023-03-12T00:08:38;7.25;;;2.75;;
55114;SDS011;41010;53.252;5.786;2023-03-12T00:11:06;7.95;;;2.70;;
55114;SDS011;41010;53.252;5.786;2023-03-12T00:13:33;7.60;;;2.60;;
55114;SDS011;41010;53.252;5.786;2023-03-12T00:16:04;7.32;;;2.40;;
55114;SDS011;41010;53.252;5.786;2023-03-12T00:18:32;6.15;;;2.05;;
55114;SDS011;41010;53.252;5.786;2023-03-12T00:20:59;6.68;;;2.30;;
55114;SDS011;41010;53.252;5.786;2023-03-12T00:23:26;6.75;;;2.45;;
55114;SDS011;41010;53.252;5.786;2023-03-12T00:25:59;5.18;;;2.70;;
55114;SDS011;41010;53.252;5.786;2023-03-12T00:28:26;5.97;;;2.63;;
55114;SDS011;41010;53.252;5.786;2023-03-12T00:30:53;7.00;;;2.33;;
55114;SDS011;41010;53.252;5.786;2023-03-12T00:33:22;5.97;;;2.53;;
55114;SDS011;41010;53.252;5.786;2023-03-12T00:35:50;7.43;;;2.75;;
55114;SDS011;41010;53.252;5.786;2023-03-12T00:38:17;5.05;;;2.30;;
55114;SDS011;41010;53.252;5.786;2023-03-12T00:40:44;6.40;;;2.40;;
55114;SDS011;41010;53.252;5.786;2023-03-12T00:43:13;8.07;;;2.50;;
55114;SDS011;41010;53.252;5.786;2023-03-12T00:45:40;7.85;;;3.08;;
55114;SDS011;41010;53.252;5.786;2023-03-12T00:48:08;10.40;;;3.15;;
55114;SDS011;41010;53.252;5.786;2023-03-12T00:50:35;10.15;;;2.78;;
55114;SDS011;41010;53.252;5.786;2023-03-12T00:53:02;8.13;;;2.83;;
55114;SDS011;41010;53.252;5.786;2023-03-12T00:55:30;10.48;;;2.67;;
55114;SDS011;41010;53.252;5.786;2023-03-12T00:57:57;6.63;;;2.75;;
55114;SDS011;41010;53.252;5.786;2023-03-12T01:00:25;14.00;;;3.40;;
55114;SDS011;41010;53.252;5.786;2023-03-12T01:02:53;7.18;;;2.75;;
55114;SDS011;41010;53.252;5.786;2023-03-12T01:05:20;9.85;;;3.17;;
55114;SDS011;41010;53.252;5.786;2023-03-12T01:07:48;11.68;;;2.60;;
55114;SDS011;41010;53.252;5.786;2023-03-12T01:10:16;10.27;;;2.75;;
55114;SDS011;41010;53.252;5.786;2023-03-12T01:12:44;10.15;;;2.72;;
55114;SDS011;41010;53.252;5.786;2023-03-12T01:15:11;7.10;;;2.75;;
55114;SDS011;41010;53.252;5.786;2023-03-12T01:17:40;7.78;;;2.42;;
55114;SDS011;41010;53.252;5.786;2023-03-12T01:20:08;12.38;;;2.90;;
55114;SDS011;41010;53.252;5.786;2023-03-12T01:22:35;7.43;;;2.53;;
55114;SDS011;41010;53.252;5.786;2023-03-12T01:25:03;7.63;;;2.75;;
55114;SDS011;41010;53.252;5.786;2023-03-12T01:27:30;4.70;;;2.60;;
55114;SDS011;41010;53.252;5.786;2023-03-12T01:29:57;6.28;;;2.53;;
55114;SDS011;41010;53.252;5.786;2023-03-12T01:32:25;9.02;;;2.50;;
55114;SDS011;41010;53.252;5.786;2023-03-12T01:34:53;6.88;;;2.47;;
55114;SDS011;41010;53.252;5.786;2023-03-12T01:37:21;5.68;;;2.40;;
55114;SDS011;41010;53.252;5.786;2023-03-12T01:39:48;8.68;;;3.13;;
55114;SDS011;41010;53.252;5.786;2023-03-12T01:42:15;8.15;;;2.60;;
55114;SDS011;41010;53.252;5.786;2023-03-12T01:44:50;6.90;;;2.83;;
55114;SDS011;41010;53.252;5.786;2023-03-12T01:47:17;6.38;;;2.88;;
55114;SDS011;41010;53.252;5.786;2023-03-12T01:49:44;6.53;;;3.03;;
55114;SDS011;41010;53.252;5.786;2023-03-12T01:52:14;11.68;;;3.53;;
55114;SDS011;41010;53.252;5.786;2023-03-12T01:54:42;7.65;;;2.90;;
55114;SDS011;41010;53.252;5.786;2023-03-12T01:57:12;7.18;;;2.90;;
55114;SDS011;41010;53.252;5.786;2023-03-12T01:59:41;12.10;;;2.58;;
55114;SDS011;41010;53.252;5.786;2023-03-12T02:02:10;7.70;;;2.30;;
55114;SDS011;41010;53.252;5.786;2023-03-12T02:04:38;10.05;;;2.50;;
55114;SDS011;41010;53.252;5.786;2023-03-12T02:07:06;5.45;;;2.33;;
55114;SDS011;41010;53.252;5.786;2023-03-12T02:09:36;5.03;;;2.53;;
55114;SDS011;41010;53.252;5.786;2023-03-12T02:12:04;7.85;;;3.25;;
55114;SDS011;41010;53.252;5.786;2023-03-12T02:14:32;8.90;;;2.80;;
55114;SDS011;41010;53.252;5.786;2023-03-12T02:16:59;7.10;;;3.20;;
55114;SDS011;41010;53.252;5.786;2023-03-12T02:19:29;7.32;;;2.72;;
55114;SDS011;41010;53.252;5.786;2023-03-12T02:21:59;9.45;;;3.08;;
55114;SDS011;41010;53.252;5.786;2023-03-12T02:24:29;7.57;;;2.53;;
55114;SDS011;41010;53.252;5.786;2023-03-12T02:27:00;6.40;;;3.05;;
55114;SDS011;41010;53.252;5.786;2023-03-12T02:29:28;7.97;;;3.05;;
55114;SDS011;41010;53.252;5.786;2023-03-12T02:31:56;6.55;;;2.90;;
55114;SDS011;41010;53.252;5.786;2023-03-12T02:34:24;7.75;;;2.50;;
55114;SDS011;41010;53.252;5.786;2023-03-12T02:36:51;7.82;;;2.95;;
55114;SDS011;41010;53.252;5.786;2023-03-12T02:39:18;5.18;;;2.55;;
55114;SDS011;41010;53.252;5.786;2023-03-12T02:41:47;4.60;;;2.05;;
55114;SDS011;41010;53.252;5.786;2023-03-12T02:44:19;6.00;;;2.60;;
55114;SDS011;41010;53.252;5.786;2023-03-12T02:46:47;4.63;;;2.13;;
55114;SDS011;41010;53.252;5.786;2023-03-12T02:49:15;10.35;;;2.50;;
55114;SDS011;41010;53.252;5.786;2023-03-12T02:51:43;9.32;;;2.40;;
55114;SDS011;41010;53.252;5.786;2023-03-12T02:54:11;5.07;;;2.17;;
55114;SDS011;41010;53.252;5.786;2023-03-12T02:56:39;6.43;;;2.50;;
55114;SDS011;41010;53.252;5.786;2023-03-12T02:59:07;7.72;;;2.53;;
55114;SDS011;41010;53.252;5.786;2023-03-12T03:01:36;7.05;;;2.90;;
55114;SDS011;41010;53.252;5.786;2023-03-12T03:04:04;11.55;;;3.45;;
55114;SDS011;41010;53.252;5.786;2023-03-12T03:06:31;9.35;;;3.25;;
55114;SDS011;41010;53.252;5.786;2023-03-12T03:08:59;11.77;;;4.40;;
55114;SDS011;41010;53.252;5.786;2023-03-12T03:11:26;5.97;;;3.05;;
55114;SDS011;41010;53.252;5.786;2023-03-12T03:13:54;7.32;;;3.20;;
55114;SDS011;41010;53.252;5.786;2023-03-12T03:16:21;11.35;;;3.15;;
55114;SDS011;41010;53.252;5.786;2023-03-12T03:18:50;5.82;;;2.30;;
55114;SDS011;41010;53.252;5.786;2023-03-12T03:21:18;8.95;;;2.35;;
55114;SDS011;41010;53.252;5.786;2023-03-12T03:23:46;7.03;;;2.45;;
55114;SDS011;41010;53.252;5.786;2023-03-12T03:26:14;8.07;;;2.58;;
55114;SDS011;41010;53.252;5.786;2023-03-12T03:28:42;8.60;;;2.40;;
55114;SDS011;41010;53.252;5.786;2023-03-12T03:31:09;6.65;;;2.35;;
55114;SDS011;41010;53.252;5.786;2023-03-12T03:33:37;7.20;;;2.83;;
55114;SDS011;41010;53.252;5.786;2023-03-12T03:36:07;7.40;;;2.75;;
55114;SDS011;41010;53.252;5.786;2023-03-12T03:38:35;5.45;;;2.50;;
55114;SDS011;41010;53.252;5.786;2023-03-12T03:41:02;5.90;;;2.50;;
55114;SDS011;41010;53.252;5.786;2023-03-12T03:43:29;3.72;;;2.30;;
55114;SDS011;41010;53.252;5.786;2023-03-12T03:45:57;8.00;;;3.03;;
55114;SDS011;41010;53.252;5.786;2023-03-12T03:48:24;7.22;;;3.00;;
55114;SDS011;41010;53.252;5.786;2023-03-12T03:50:51;8.52;;;2.33;;
55114;SDS011;41010;53.252;5.786;2023-03-12T03:53:20;9.05;;;2.67;;
55114;SDS011;41010;53.252;5.786;2023-03-12T03:55:47;8.00;;;2.80;;
55114;SDS011;41010;53.252;5.786;2023-03-12T03:58:14;6.20;;;2.67;;
55114;SDS011;41010;53.252;5.786;2023-03-12T04:00:43;8.10;;;2.35;;
55114;SDS011;41010;53.252;5.786;2023-03-12T04:03:10;10.43;;;2.83;;
55114;SDS011;41010;53.252;5.786;2023-03-12T04:05:38;10.90;;;3.22;;
55114;SDS011;41010;53.252;5.786;2023-03-12T04:08:09;9.98;;;2.70;;
55114;SDS011;41010;53.252;5.786;2023-03-12T04:10:37;12.55;;;2.97;;
55114;SDS011;41010;53.252;5.786;2023-03-12T04:13:05;8.15;;;3.03;;
55114;SDS011;41010;53.252;5.786;2023-03-12T04:15:32;8.27;;;3.20;;
55114;SDS011;41010;53.252;5.786;2023-03-12T04:17:59;6.63;;;2.78;;
55114;SDS011;41010;53.252;5.786;2023-03-12T04:20:26;8.50;;;2.72;;
55114;SDS011;41010;53.252;5.786;2023-03-12T04:22:54;8.93;;;2.90;;
55114;SDS011;41010;53.252;5.786;2023-03-12T04:25:22;7.07;;;2.58;;
55114;SDS011;41010;53.252;5.786;2023-03-12T04:27:51;7.80;;;2.53;;
55114;SDS011;41010;53.252;5.786;2023-03-12T04:30:18;7.20;;;2.90;;
55114;SDS011;41010;53.252;5.786;2023-03-12T04:32:45;9.20;;;2.92;;
55114;SDS011;41010;53.252;5.786;2023-03-12T04:35:13;7.32;;;2.95;;
55114;SDS011;41010;53.252;5.786;2023-03-12T04:37:40;8.23;;;3.08;;
55114;SDS011;41010;53.252;5.786;2023-03-12T04:40:09;7.10;;;2.88;;
55114;SDS011;41010;53.252;5.786;2023-03-12T04:42:36;6.97;;;3.05;;
55114;SDS011;41010;53.252;5.786;2023-03-12T04:45:05;7.57;;;2.75;;
55114;SDS011;41010;53.252;5.786;2023-03-12T04:47:33;11.90;;;3.03;;
55114;SDS011;41010;53.252;5.786;2023-03-12T04:50:00;9.95;;;2.85;;
55114;SDS011;41010;53.252;5.786;2023-03-12T04:52:27;6.80;;;2.53;;
55114;SDS011;41010;53.252;5.786;2023-03-12T04:54:55;6.70;;;2.92;;
55114;SDS011;41010;53.252;5.786;2023-03-12T04:57:23;9.23;;;3.00;;
55114;SDS011;41010;53.252;5.786;2023-03-12T04:59:50;7.50;;;2.72;;
55114;SDS011;41010;53.252;5.786;2023-03-12T05:02:19;7.97;;;2.67;;
55114;SDS011;41010;53.252;5.786;2023-03-12T05:04:46;10.05;;;3.10;;
55114;SDS011;41010;53.252;5.786;2023-03-12T05:07:13;11.45;;;2.70;;
55114;SDS011;41010;53.252;5.786;2023-03-12T05:09:41;10.95;;;2.42;;
55114;SDS011;41010;53.252;5.786;2023-03-12T05:12:10;8.50;;;2.78;;
55114;SDS011;41010;53.252;5.786;2023-03-12T05:14:37;8.38;;;2.70;;
55114;SDS011;41010;53.252;5.786;2023-03-12T05:17:04;10.98;;;3.13;;
55114;SDS011;41010;53.252;5.786;2023-03-12T05:19:33;6.07;;;2.67;;
55114;SDS011;41010;53.252;5.786;2023-03-12T05:22:00;7.13;;;2.55;;
55114;SDS011;41010;53.252;5.786;2023-03-12T05:24:28;14.75;;;3.15;;
55114;SDS011;41010;53.252;5.786;2023-03-12T05:26:55;6.00;;;2.65;;
55114;SDS011;41010;53.252;5.786;2023-03-12T05:29:22;7.97;;;2.60;;
55114;SDS011;41010;53.252;5.786;2023-03-12T05:31:49;9.25;;;3.10;;
55114;SDS011;41010;53.252;5.786;2023-03-12T05:34:17;9.73;;;2.80;;
55114;SDS011;41010;53.252;5.786;2023-03-12T05:36:45;8.10;;;2.90;;
55114;SDS011;41010;53.252;5.786;2023-03-12T05:39:13;6.57;;;2.72;;
55114;SDS011;41010;53.252;5.786;2023-03-12T05:41:40;8.52;;;3.25;;
55114;SDS011;41010;53.252;5.786;2023-03-12T05:44:08;14.30;;;3.20;;
55114;SDS011;41010;53.252;5.786;2023-03-12T05:46:36;6.68;;;3.20;;
55114;SDS011;41010;53.252;5.786;2023-03-12T05:49:03;9.75;;;2.83;;
55114;SDS011;41010;53.252;5.786;2023-03-12T05:51:31;6.40;;;2.90;;
55114;SDS011;41010;53.252;5.786;2023-03-12T05:53:59;9.38;;;2.72;;
55114;SDS011;41010;53.252;5.786;2023-03-12T05:56:27;8.90;;;3.53;;
55114;SDS011;41010;53.252;5.786;2023-03-12T05:58:54;10.60;;;3.13;;
55114;SDS011;41010;53.252;5.786;2023-03-12T06:01:22;8.70;;;3.80;;
55114;SDS011;41010;53.252;5.786;2023-03-12T06:03:49;10.38;;;3.35;;
55114;SDS011;41010;53.252;5.786;2023-03-12T06:06:17;8.82;;;3.30;;
55114;SDS011;41010;53.252;5.786;2023-03-12T06:08:44;7.43;;;2.90;;
55114;SDS011;41010;53.252;5.786;2023-03-12T06:11:13;5.88;;;2.80;;
55114;SDS011;41010;53.252;5.786;2023-03-12T06:13:40;8.10;;;3.30;;
55114;SDS011;41010;53.252;5.786;2023-03-12T06:16:08;11.57;;;3.10;;
55114;SDS011;41010;53.252;5.786;2023-03-12T06:18:37;7.50;;;2.92;;
55114;SDS011;41010;53.252;5.786;2023-03-12T06:21:07;12.38;;;3.25;;
55114;SDS011;41010;53.252;5.786;2023-03-12T06:23:35;13.57;;;3.17;;
55114;SDS011;41010;53.252;5.786;2023-03-12T06:26:02;10.68;;;3.97;;
55114;SDS011;41010;53.252;5.786;2023-03-12T06:28:31;8.18;;;3.70;;
55114;SDS011;41010;53.252;5.786;2023-03-12T06:30:59;6.22;;;2.70;;
55114;SDS011;41010;53.252;5.786;2023-03-12T06:33:26;10.70;;;3.10;;
55114;SDS011;41010;53.252;5.786;2023-03-12T06:35:54;9.30;;;3.13;;
55114;SDS011;41010;53.252;5.786;2023-03-12T06:38:21;10.40;;;3.13;;
55114;SDS011;41010;53.252;5.786;2023-03-12T06:40:52;10.10;;;3.55;;
55114;SDS011;41010;53.252;5.786;2023-03-12T06:43:20;12.80;;;3.08;;
55114;SDS011;41010;53.252;5.786;2023-03-12T06:45:49;9.43;;;3.03;;
55114;SDS011;41010;53.252;5.786;2023-03-12T06:48:16;14.10;;;3.70;;
55114;SDS011;41010;53.252;5.786;2023-03-12T06:50:43;8.88;;;3.42;;
55114;SDS011;41010;53.252;5.786;2023-03-12T06:53:10;13.20;;;3.63;;
55114;SDS011;41010;53.252;5.786;2023-03-12T06:55:38;8.50;;;3.40;;
55114;SDS011;41010;53.252;5.786;2023-03-12T06:58:05;10.63;;;3.17;;
55114;SDS011;41010;53.252;5.786;2023-03-12T07:00:32;9.77;;;3.50;;
55114;SDS011;41010;53.252;5.786;2023-03-12T07:03:01;10.50;;;3.80;;
55114;SDS011;41010;53.252;5.786;2023-03-12T07:05:28;7.85;;;3.60;;
55114;SDS011;41010;53.252;5.786;2023-03-12T07:07:55;10.75;;;4.00;;
55114;SDS011;41010;53.252;5.786;2023-03-12T07:10:23;9.90;;;4.00;;
55114;SDS011;41010;53.252;5.786;2023-03-12T07:12:52;7.68;;;3.78;;
55114;SDS011;41010;53.252;5.786;2023-03-12T07:15:20;11.25;;;4.25;;
55114;SDS011;41010;53.252;5.786;2023-03-12T07:17:47;8.90;;;3.85;;
55114;SDS011;41010;53.252;5.786;2023-03-12T07:20:16;10.45;;;4.55;;
55114;SDS011;41010;53.252;5.786;2023-03-12T07:22:43;15.23;;;4.60;;
55114;SDS011;41010;53.252;5.786;2023-03-12T07:25:11;13.13;;;5.15;;
55114;SDS011;41010;53.252;5.786;2023-03-12T07:27:38;12.43;;;5.15;;
55114;SDS011;41010;53.252;5.786;2023-03-12T07:30:06;13.93;;;5.80;;
55114;SDS011;41010;53.252;5.786;2023-03-12T07:32:33;17.02;;;6.00;;
55114;SDS011;41010;53.252;5.786;2023-03-12T07:35:01;16.65;;;5.72;;
55114;SDS011;41010;53.252;5.786;2023-03-12T07:37:29;14.40;;;6.85;;
55114;SDS011;41010;53.252;5.786;2023-03-12T07:39:57;17.65;;;6.40;;
55114;SDS011;41010;53.252;5.786;2023-03-12T07:42:24;14.60;;;7.03;;
55114;SDS011;41010;53.252;5.786;2023-03-12T07:44:51;12.23;;;5.55;;
55114;SDS011;41010;53.252;5.786;2023-03-12T07:47:18;21.13;;;6.50;;
55114;SDS011;41010;53.252;5.786;2023-03-12T07:49:46;16.67;;;6.20;;
55114;SDS011;41010;53.252;5.786;2023-03-12T07:52:13;12.02;;;5.60;;
55114;SDS011;41010;53.252;5.786;2023-03-12T07:54:43;11.75;;;5.55;;
55114;SDS011;41010;53.252;5.786;2023-03-12T07:57:10;17.13;;;5.90;;
55114;SDS011;41010;53.252;5.786;2023-03-12T07:59:38;13.20;;;6.47;;
55114;SDS011;41010;53.252;5.786;2023-03-12T08:02:05;15.27;;;6.07;;
55114;SDS011;41010;53.252;5.786;2023-03-12T08:04:32;15.80;;;6.28;;
55114;SDS011;41010;53.252;5.786;2023-03-12T08:07:00;14.20;;;6.45;;
55114;SDS011;41010;53.252;5.786;2023-03-12T08:09:28;17.42;;;6.47;;
55114;SDS011;41010;53.252;5.786;2023-03-12T08:11:57;18.10;;;6.90;;
55114;SDS011;41010;53.252;5.786;2023-03-12T08:14:25;13.90;;;6.97;;
55114;SDS011;41010;53.252;5.786;2023-03-12T08:16:55;16.25;;;6.40;;
55114;SDS011;41010;53.252;5.786;2023-03-12T08:19:23;15.20;;;7.07;;
55114;SDS011;41010;53.252;5.786;2023-03-12T08:21:50;17.45;;;7.70;;
55114;SDS011;41010;53.252;5.786;2023-03-12T08:24:18;16.75;;;7.60;;
55114;SDS011;41010;53.252;5.786;2023-03-12T08:26:45;13.38;;;6.53;;
55114;SDS011;41010;53.252;5.786;2023-03-12T08:29:14;18.77;;;7.10;;
55114;SDS011;41010;53.252;5.786;2023-03-12T08:31:41;16.42;;;7.20;;
55114;SDS011;41010;53.252;5.786;2023-03-12T08:34:09;16.77;;;7.25;;
55114;SDS011;41010;53.252;5.786;2023-03-12T08:36:37;16.55;;;7.85;;
55114;SDS011;41010;53.252;5.786;2023-03-12T08:39:04;20.83;;;8.23;;
55114;SDS011;41010;53.252;5.786;2023-03-12T08:41:31;13.07;;;7.47;;
55114;SDS011;41010;53.252;5.786;2023-03-12T08:43:58;20.17;;;7.47;;
55114;SDS011;41010;53.252;5.786;2023-03-12T08:46:27;12.80;;;7.53;;
55114;SDS011;41010;53.252;5.786;2023-03-12T08:48:54;19.95;;;8.13;;
55114;SDS011;41010;53.252;5.786;2023-03-12T08:51:22;17.75;;;7.15;;
55114;SDS011;41010;53.252;5.786;2023-03-12T08:53:49;19.38;;;7.95;;
55114;SDS011;41010;53.252;5.786;2023-03-12T08:56:17;16.15;;;7.90;;
55114;SDS011;41010;53.252;5.786;2023-03-12T08:58:44;20.63;;;7.40;;
55114;SDS011;41010;53.252;5.786;2023-03-12T09:01:12;13.60;;;7.30;;
55114;SDS011;41010;53.252;5.786;2023-03-12T09:03:41;12.93;;;7.65;;
55114;SDS011;41010;53.252;5.786;2023-03-12T09:06:09;16.05;;;7.40;;
55114;SDS011;41010;53.252;5.786;2023-03-12T09:08:37;16.13;;;7.68;;
55114;SDS011;41010;53.252;5.786;2023-03-12T09:11:05;18.58;;;8.80;;
55114;SDS011;41010;53.252;5.786;2023-03-12T09:13:33;14.88;;;8.38;;
55114;SDS011;41010;53.252;5.786;2023-03-12T09:16:00;10.32;;;7.28;;
55114;SDS011;41010;53.252;5.786;2023-03-12T09:18:28;16.13;;;8.63;;
55114;SDS011;41010;53.252;5.786;2023-03-12T09:20:57;13.73;;;7.00;;
55114;SDS011;41010;53.252;5.786;2023-03-12T09:23:25;17.35;;;7.97;;
55114;SDS011;41010;53.252;5.786;2023-03-12T09:25:52;16.15;;;8.48;;
55114;SDS011;41010;53.252;5.786;2023-03-12T09:28:20;15.48;;;8.40;;
55114;SDS011;41010;53.252;5.786;2023-03-12T09:30:47;18.27;;;8.18;;
55114;SDS011;41010;53.252;5.786;2023-03-12T09:33:15;18.35;;;9.23;;
55114;SDS011;41010;53.252;5.786;2023-03-12T09:35:43;17.02;;;9.23;;
55114;SDS011;41010;53.252;5.786;2023-03-12T09:38:14;20.35;;;10.05;;
55114;SDS011;41010;53.252;5.786;2023-03-12T09:40:42;17.80;;;8.88;;
55114;SDS011;41010;53.252;5.786;2023-03-12T09:43:14;16.13;;;9.77;;
55114;SDS011;41010;53.252;5.786;2023-03-12T09:45:43;18.95;;;10.32;;
55114;SDS011;41010;53.252;5.786;2023-03-12T09:48:12;20.48;;;10.75;;
55114;SDS011;41010;53.252;5.786;2023-03-12T09:50:42;17.55;;;9.93;;
55114;SDS011;41010;53.252;5.786;2023-03-12T09:53:13;19.15;;;10.52;;
55114;SDS011;41010;53.252;5.786;2023-03-12T09:55:46;19.05;;;10.18;;
55114;SDS011;41010;53.252;5.786;2023-03-12T09:58:15;20.42;;;11.43;;
55114;SDS011;41010;53.252;5.786;2023-03-12T10:00:44;19.98;;;10.35;;
55114;SDS011;41010;53.252;5.786;2023-03-12T10:03:21;16.42;;;10.73;;
55114;SDS011;41010;53.252;5.786;2023-03-12T10:05:52;19.40;;;10.43;;
55114;SDS011;41010;53.252;5.786;2023-03-12T10:08:28;18.92;;;10.68;;
55114;SDS011;41010;53.252;5.786;2023-03-12T10:11:01;16.10;;;10.02;;
55114;SDS011;41010;53.252;5.786;2023-03-12T10:13:35;22.83;;;11.98;;
55114;SDS011;41010;53.252;5.786;2023-03-12T10:16:09;18.77;;;12.07;;
55114;SDS011;41010;53.252;5.786;2023-03-12T10:18:43;23.00;;;12.75;;
55114;SDS011;41010;53.252;5.786;2023-03-12T10:21:18;25.02;;;13.25;;
55114;SDS011;41010;53.252;5.786;2023-03-12T10:23:50;32.28;;;14.25;;
55114;SDS011;41010;53.252;5.786;2023-03-12T10:26:21;26.65;;;14.27;;
55114;SDS011;41010;53.252;5.786;2023-03-12T10:28:50;26.38;;;13.32;;
55114;SDS011;41010;53.252;5.786;2023-03-12T10:31:20;31.05;;;13.43;;
55114;SDS011;41010;53.252;5.786;2023-03-12T10:33:51;24.02;;;12.88;;
55114;SDS011;41010;53.252;5.786;2023-03-12T10:36:19;27.40;;;14.93;;
55114;SDS011;41010;53.252;5.786;2023-03-12T10:38:47;26.30;;;15.98;;
55114;SDS011;41010;53.252;5.786;2023-03-12T10:41:15;30.83;;;16.10;;
55114;SDS011;41010;53.252;5.786;2023-03-12T10:43:44;27.23;;;15.80;;
55114;SDS011;41010;53.252;5.786;2023-03-12T10:46:21;40.88;;;19.00;;
55114;SDS011;41010;53.252;5.786;2023-03-12T10:49:04;33.13;;;17.85;;
55114;SDS011;41010;53.252;5.786;2023-03-12T10:51:52;33.72;;;18.67;;
55114;SDS011;41010;53.252;5.786;2023-03-12T10:54:20;37.55;;;18.67;;
55114;SDS011;41010;53.252;5.786;2023-03-12T10:56:48;38.95;;;20.98;;
55114;SDS011;41010;53.252;5.786;2023-03-12T10:59:20;42.95;;;21.48;;
55114;SDS011;41010;53.252;5.786;2023-03-12T11:01:48;39.88;;;21.80;;
55114;SDS011;41010;53.252;5.786;2023-03-12T11:04:17;42.03;;;21.88;;
55114;SDS011;41010;53.252;5.786;2023-03-12T11:07:01;39.92;;;22.90;;
55114;SDS011;41010;53.252;5.786;2023-03-12T11:09:29;53.90;;;25.98;;
55114;SDS011;41010;53.252;5.786;2023-03-12T11:11:56;49.45;;;23.90;;
55114;SDS011;41010;53.252;5.786;2023-03-12T11:14:25;59.95;;;29.85;;
55114;SDS011;41010;53.252;5.786;2023-03-12T11:16:53;60.90;;;27.83;;
55114;SDS011;41010;53.252;5.786;2023-03-12T11:19:28;65.88;;;29.15;;
55114;SDS011;41010;53.252;5.786;2023-03-12T11:21:56;68.60;;;31.27;;
55114;SDS011;41010;53.252;5.786;2023-03-12T11:24:24;64.10;;;29.75;;
55114;SDS011;41010;53.252;5.786;2023-03-12T11:26:52;78.90;;;31.77;;
55114;SDS011;41010;53.252;5.786;2023-03-12T11:29:26;69.13;;;30.40;;
55114;SDS011;41010;53.252;5.786;2023-03-12T11:31:59;70.93;;;31.38;;
55114;SDS011;41010;53.252;5.786;2023-03-12T11:34:29;73.03;;;31.10;;
55114;SDS011;41010;53.252;5.786;2023-03-12T11:36:59;75.75;;;31.55;;
55114;SDS011;41010;53.252;5.786;2023-03-12T11:39:30;79.50;;;32.67;;
55114;SDS011;41010;53.252;5.786;2023-03-12T11:42:08;79.85;;;34.28;;
55114;SDS011;41010;53.252;5.786;2023-03-12T11:44:40;82.80;;;32.35;;
55114;SDS011;41010;53.252;5.786;2023-03-12T11:47:15;76.80;;;31.10;;
55114;SDS011;41010;53.252;5.786;2023-03-12T11:49:52;87.25;;;32.40;;
55114;SDS011;41010;53.252;5.786;2023-03-12T11:52:23;80.28;;;30.60;;
55114;SDS011;41010;53.252;5.786;2023-03-12T11:54:58;94.15;;;31.42;;
55114;SDS011;41010;53.252;5.786;2023-03-12T11:57:34;84.50;;;28.92;;
55114;SDS011;41010;53.252;5.786;2023-03-12T12:00:11;86.40;;;29.23;;
55114;SDS011;41010;53.252;5.786;2023-03-12T12:02:43;84.13;;;26.27;;
55114;SDS011;41010;53.252;5.786;2023-03-12T12:05:24;76.45;;;19.75;;
55114;SDS011;41010;53.252;5.786;2023-03-12T12:07:57;82.80;;;21.85;;
55114;SDS011;41010;53.252;5.786;2023-03-12T12:10:33;73.35;;;18.77;;
55114;SDS011;41010;53.252;5.786;2023-03-12T12:13:05;90.55;;;21.20;;
55114;SDS011;41010;53.252;5.786;2023-03-12T12:15:37;86.32;;;18.10;;
55114;SDS011;41010;53.252;5.786;2023-03-12T12:18:11;73.97;;;16.83;;
55114;SDS011;41010;53.252;5.786;2023-03-12T12:20:45;61.90;;;14.90;;
55114;SDS011;41010;53.252;5.786;2023-03-12T12:23:15;84.15;;;15.80;;
55114;SDS011;41010;53.252;5.786;2023-03-12T12:25:55;54.80;;;13.45;;
55114;SDS011;41010;53.252;5.786;2023-03-12T12:28:30;58.53;;;11.75;;
55114;SDS011;41010;53.252;5.786;2023-03-12T12:31:17;53.53;;;10.73;;
55114;SDS011;41010;53.252;5.786;2023-03-12T12:33:50;55.80;;;9.13;;
55114;SDS011;41010;53.252;5.786;2023-03-12T12:36:20;49.85;;;7.50;;
55114;SDS011;41010;53.252;5.786;2023-03-12T12:38:51;58.30;;;8.23;;
55114;SDS011;41010;53.252;5.786;2023-03-12T12:41:20;37.33;;;6.65;;
55114;SDS011;41010;53.252;5.786;2023-03-12T12:43:50;43.50;;;5.68;;
55114;SDS011;41010;53.252;5.786;2023-03-12T12:46:22;49.92;;;6.18;;
55114;SDS011;41010;53.252;5.786;2023-03-12T12:48:51;46.88;;;7.50;;
55114;SDS011;41010;53.252;5.786;2023-03-12T12:51:20;37.80;;;5.70;;
55114;SDS011;41010;53.252;5.786;2023-03-12T12:53:49;41.97;;;5.63;;
55114;SDS011;41010;53.252;5.786;2023-03-12T12:56:21;33.47;;;6.05;;
55114;SDS011;41010;53.252;5.786;2023-03-12T12:58:53;36.58;;;5.00;;
55114;SDS011;41010;53.252;5.786;2023-03-12T13:01:23;26.17;;;4.13;;
55114;SDS011;41010;53.252;5.786;2023-03-12T13:03:51;33.05;;;5.57;;
55114;SDS011;41010;53.252;5.786;2023-03-12T13:06:21;38.55;;;5.78;;
55114;SDS011;41010;53.252;5.786;2023-03-12T13:08:58;40.13;;;5.25;;
55114;SDS011;41010;53.252;5.786;2023-03-12T13:11:29;42.65;;;5.50;;
55114;SDS011;41010;53.252;5.786;2023-03-12T13:16:45;40.97;;;5.13;;
55114;SDS011;41010;53.252;5.786;2023-03-12T13:19:23;43.45;;;5.93;;
55114;SDS011;41010;53.252;5.786;2023-03-12T13:21:54;42.88;;;6.18;;
55114;SDS011;41010;53.252;5.786;2023-03-12T13:24:24;39.38;;;6.22;;
55114;SDS011;41010;53.252;5.786;2023-03-12T13:26:55;39.97;;;5.70;;
55114;SDS011;41010;53.252;5.786;2023-03-12T13:29:35;39.42;;;5.57;;
55114;SDS011;41010;53.252;5.786;2023-03-12T13:32:04;44.63;;;5.88;;
55114;SDS011;41010;53.252;5.786;2023-03-12T13:37:19;39.25;;;5.38;;
55114;SDS011;41010;53.252;5.786;2023-03-12T13:39:50;40.50;;;5.57;;
55114;SDS011;41010;53.252;5.786;2023-03-12T13:45:25;38.85;;;5.78;;
55114;SDS011;41010;53.252;5.786;2023-03-12T13:47:56;34.83;;;5.10;;
55114;SDS011;41010;53.252;5.786;2023-03-12T13:50:24;39.80;;;6.75;;
55114;SDS011;41010;53.252;5.786;2023-03-12T13:52:55;44.15;;;6.55;;
55114;SDS011;41010;53.252;5.786;2023-03-12T13:55:27;37.20;;;5.05;;
55114;SDS011;41010;53.252;5.786;2023-03-12T13:57:55;35.05;;;5.63;;
55114;SDS011;41010;53.252;5.786;2023-03-12T14:00:25;46.70;;;5.53;;
55114;SDS011;41010;53.252;5.786;2023-03-12T14:02:56;49.17;;;6.95;;
55114;SDS011;41010;53.252;5.786;2023-03-12T14:05:25;42.83;;;6.53;;
55114;SDS011;41010;53.252;5.786;2023-03-12T14:07:54;39.17;;;6.57;;
55114;SDS011;41010;53.252;5.786;2023-03-12T14:10:26;39.10;;;6.30;;
55114;SDS011;41010;53.252;5.786;2023-03-12T14:12:57;31.45;;;5.80;;
55114;SDS011;41010;53.252;5.786;2023-03-12T14:15:27;33.88;;;6.20;;
55114;SDS011;41010;53.252;5.786;2023-03-12T14:17:59;38.15;;;6.10;;
55114;SDS011;41010;53.252;5.786;2023-03-12T14:20:27;34.65;;;5.38;;
55114;SDS011;41010;53.252;5.786;2023-03-12T14:22:56;36.67;;;6.13;;
55114;SDS011;41010;53.252;5.786;2023-03-12T14:25:28;49.38;;;7.25;;
55114;SDS011;41010;53.252;5.786;2023-03-12T14:27:57;44.50;;;7.53;;
55114;SDS011;41010;53.252;5.786;2023-03-12T14:30:27;42.60;;;6.68;;
55114;SDS011;41010;53.252;5.786;2023-03-12T14:32:58;40.78;;;6.10;;
55114;SDS011;41010;53.252;5.786;2023-03-12T14:35:29;43.08;;;6.13;;
55114;SDS011;41010;53.252;5.786;2023-03-12T14:37:59;42.85;;;6.32;;
55114;SDS011;41010;53.252;5.786;2023-03-12T14:40:34;44.67;;;6.47;;
55114;SDS011;41010;53.252;5.786;2023-03-12T14:43:17;43.60;;;6.65;;
55114;SDS011;41010;53.252;5.786;2023-03-12T14:45:44;43.50;;;7.25;;
55114;SDS011;41010;53.252;5.786;2023-03-12T14:48:13;45.25;;;6.95;;
55114;SDS011;41010;53.252;5.786;2023-03-12T14:50:40;45.53;;;7.55;;
55114;SDS011;41010;53.252;5.786;2023-03-12T14:53:10;48.05;;;7.68;;
55114;SDS011;41010;53.252;5.786;2023-03-12T14:55:38;43.83;;;7.70;;
55114;SDS011;41010;53.252;5.786;2023-03-12T14:58:06;49.72;;;6.80;;